createdAt,value
2018-08-12T00:00:34.599Z,77.99
2018-08-12T00:01:34.586Z,78.19
2018-08-12T00:02:34.614Z,77.80
2018-08-12T00:03:34.567Z,77.90
2018-08-12T00:04:34.568Z,78.09
2018-08-12T00:05:34.559Z,77.80
2018-08-12T00:06:34.551Z,78.28
2018-08-12T00:07:34.557Z,78.19
2018-08-12T00:08:34.546Z,79.05
2018-08-12T00:09:34.552Z,79.05
2018-08-12T00:10:34.547Z,78.38
2018-08-12T00:11:34.533Z,78.28
2018-08-12T00:12:34.530Z,78.14
2018-08-12T00:13:34.525Z,77.61
2018-08-12T00:14:34.519Z,77.99
2018-08-12T00:15:34.512Z,79.43
2018-08-12T00:16:34.509Z,79.00
2018-08-12T00:17:34.515Z,78.24
2018-08-12T00:18:34.501Z,78.43
2018-08-12T00:19:34.496Z,78.43
2018-08-12T00:20:34.494Z,78.47
2018-08-12T00:21:34.488Z,78.24
2018-08-12T00:22:34.485Z,78.19
2018-08-12T00:23:34.491Z,77.99
2018-08-12T00:24:34.489Z,77.80
2018-08-12T00:25:34.476Z,78.63
2018-08-12T00:26:34.479Z,78.81
2018-08-12T00:27:34.463Z,79.00
2018-08-12T00:28:34.454Z,78.43
2018-08-12T00:29:34.486Z,79.10
2018-08-12T00:30:34.484Z,79.29
2018-08-12T00:31:34.443Z,79.68
2018-08-12T00:32:34.441Z,79.10
2018-08-12T00:33:34.430Z,80.06
2018-08-12T00:34:34.426Z,80.44
2018-08-12T00:35:34.469Z,79.20
2018-08-12T00:36:34.418Z,79.96
2018-08-12T00:37:34.416Z,79.96
2018-08-12T00:38:34.439Z,79.29
2018-08-12T00:39:34.416Z,79.77
2018-08-12T00:40:34.400Z,79.39
2018-08-12T00:41:34.402Z,79.29
2018-08-12T00:42:34.393Z,79.10
2018-08-12T00:43:34.390Z,78.91
2018-08-12T00:44:34.385Z,80.16
2018-08-12T00:45:34.381Z,79.68
2018-08-12T00:46:34.417Z,79.77
2018-08-12T00:47:34.389Z,79.77
2018-08-12T00:48:34.379Z,79.77
2018-08-12T00:49:34.364Z,79.10
2018-08-12T00:50:34.358Z,80.06
2018-08-12T00:51:34.357Z,79.87
2018-08-12T00:52:34.356Z,80.73
2018-08-12T00:53:34.346Z,80.92
2018-08-12T00:54:34.338Z,81.02
2018-08-12T00:55:34.336Z,80.63
2018-08-12T00:56:34.338Z,81.78
2018-08-12T00:57:34.352Z,81.59
2018-08-12T00:58:34.324Z,81.55
2018-08-12T00:59:34.323Z,80.98
2018-08-12T01:00:34.315Z,80.44
2018-08-12T01:01:34.309Z,79.93
2018-08-12T01:02:34.302Z,79.54
2018-08-12T01:03:34.300Z,80.69
2018-08-12T01:04:34.296Z,82.12
2018-08-12T01:05:34.287Z,82.31
2018-08-12T01:06:34.309Z,81.16
2018-08-12T01:07:34.280Z,81.16
2018-08-12T01:08:34.287Z,80.79
2018-08-12T01:09:34.268Z,81.74
2018-08-12T01:10:34.265Z,81.26
2018-08-12T01:11:34.264Z,81.84
2018-08-12T01:12:34.255Z,82.12
2018-08-12T01:13:34.264Z,80.98
2018-08-12T01:14:34.243Z,82.03
2018-08-12T01:15:34.248Z,81.74
2018-08-12T01:16:34.265Z,82.22
2018-08-12T01:17:34.239Z,81.74
2018-08-12T01:18:49.347Z,82.03
2018-08-12T01:19:34.222Z,82.60
2018-08-12T01:20:34.214Z,82.60
2018-08-12T01:21:34.214Z,82.51
2018-08-12T01:22:34.206Z,82.37
2018-08-12T01:23:34.204Z,82.65
2018-08-12T01:24:34.210Z,82.41
2018-08-12T01:25:34.193Z,83.42
2018-08-12T01:26:34.195Z,83.13
2018-08-12T01:27:34.184Z,83.51
2018-08-12T01:28:34.216Z,83.42
2018-08-12T01:29:34.714Z,83.42
2018-08-12T01:30:34.169Z,83.04
2018-08-12T01:31:34.171Z,83.13
2018-08-12T01:32:34.175Z,82.46
2018-08-12T01:33:34.163Z,82.75
2018-08-12T01:34:34.153Z,83.42
2018-08-12T01:35:34.157Z,83.51
2018-08-12T01:36:34.154Z,82.75
2018-08-12T01:37:34.137Z,82.37
2018-08-12T01:38:34.721Z,83.23
2018-08-12T01:39:34.125Z,83.23
2018-08-12T01:40:34.128Z,83.90
2018-08-12T01:41:34.128Z,84.09
2018-08-12T01:42:34.130Z,83.99
2018-08-12T01:43:34.111Z,84.19
2018-08-12T01:44:34.134Z,83.23
2018-08-12T01:45:34.100Z,82.84
2018-08-12T01:46:34.091Z,83.33
2018-08-12T01:47:34.089Z,83.04
2018-08-12T01:48:34.081Z,83.33
2018-08-12T01:49:34.091Z,83.42
2018-08-12T01:50:34.075Z,83.23
2018-08-12T01:51:34.069Z,83.04
2018-08-12T01:52:34.070Z,82.65
2018-08-12T01:53:34.101Z,83.61
2018-08-12T01:54:34.049Z,84.28
2018-08-12T01:55:34.052Z,84.19
2018-08-12T01:56:34.039Z,84.09
2018-08-12T01:57:34.033Z,84.28
2018-08-12T01:58:34.041Z,83.90
2018-08-12T01:59:34.035Z,84.28
2018-08-12T02:00:34.069Z,83.61
2018-08-12T02:01:34.020Z,83.33
2018-08-12T02:02:34.013Z,82.94
2018-08-12T02:03:34.011Z,82.46
2018-08-12T02:04:34.013Z,83.51
2018-08-12T02:05:34.020Z,82.94
2018-08-12T02:06:34.003Z,83.33
2018-08-12T02:07:33.994Z,83.51
2018-08-12T02:08:34.012Z,83.33
2018-08-12T02:09:33.973Z,83.99
2018-08-12T02:10:34.744Z,83.80
2018-08-12T02:11:33.971Z,84.09
2018-08-12T02:12:33.967Z,84.66
2018-08-12T02:13:33.956Z,84.66
2018-08-12T02:14:33.950Z,85.58
2018-08-12T02:15:33.977Z,85.19
2018-08-12T02:16:33.959Z,85.58
2018-08-12T02:17:33.931Z,84.91
2018-08-12T02:18:33.946Z,85.00
2018-08-12T02:19:33.927Z,85.67
2018-08-12T02:20:33.927Z,84.76
2018-08-12T02:21:33.910Z,84.62
2018-08-12T02:22:33.909Z,84.91
2018-08-12T02:23:33.916Z,84.52
2018-08-12T02:24:33.907Z,84.72
2018-08-12T02:25:33.921Z,84.52
2018-08-12T02:26:33.932Z,84.47
2018-08-12T02:27:33.906Z,84.19
2018-08-12T02:28:33.879Z,84.76
2018-08-12T02:29:33.892Z,84.95
2018-08-12T02:30:33.871Z,84.38
2018-08-12T02:31:33.862Z,84.56
2018-08-12T02:32:33.873Z,84.47
2018-08-12T02:33:33.866Z,84.28
2018-08-12T02:34:33.844Z,84.28
2018-08-12T02:35:33.843Z,84.19
2018-08-12T02:36:34.756Z,84.23
2018-08-12T02:37:33.839Z,84.47
2018-08-12T02:38:33.819Z,84.52
2018-08-12T02:39:33.831Z,84.43
2018-08-12T02:40:33.838Z,85.58
2018-08-12T02:41:33.833Z,85.29
2018-08-12T02:42:33.813Z,85.86
2018-08-12T02:43:33.809Z,85.00
2018-08-12T02:44:33.796Z,85.00
2018-08-12T02:45:33.788Z,85.00
2018-08-12T02:46:33.776Z,85.96
2018-08-12T02:47:33.773Z,84.91
2018-08-12T02:48:33.788Z,84.52
2018-08-12T02:49:33.764Z,84.52
2018-08-12T02:50:33.779Z,85.19
2018-08-12T02:51:33.760Z,86.34
2018-08-12T02:52:33.750Z,85.10
2018-08-12T02:53:33.743Z,84.81
2018-08-12T02:54:33.746Z,85.38
2018-08-12T02:55:33.743Z,84.72
2018-08-12T02:56:33.727Z,85.29
2018-08-12T02:57:33.724Z,85.48
2018-08-12T02:58:33.723Z,86.15
2018-08-12T02:59:33.711Z,85.10
2018-08-12T03:00:33.709Z,84.62
2018-08-12T03:01:33.704Z,85.48
2018-08-12T03:02:34.261Z,86.53
2018-08-12T03:03:33.693Z,85.58
2018-08-12T03:04:33.683Z,86.30
2018-08-12T03:05:33.690Z,86.24
2018-08-12T03:06:33.678Z,86.34
2018-08-12T03:07:33.680Z,86.05
2018-08-12T03:08:33.666Z,86.39
2018-08-12T03:09:33.656Z,86.63
2018-08-12T03:10:33.653Z,87.54
2018-08-12T03:11:33.651Z,88.54
2018-08-12T03:12:33.647Z,87.92
2018-08-12T03:13:33.638Z,88.82
2018-08-12T03:14:33.632Z,88.54
2018-08-12T03:15:33.644Z,88.49
2018-08-12T03:16:33.638Z,89.01
2018-08-12T03:17:33.618Z,89.68
2018-08-12T03:18:33.613Z,89.73
2018-08-12T03:19:33.609Z,89.97
2018-08-12T03:20:33.615Z,90.02
2018-08-12T03:21:33.591Z,90.97
2018-08-12T03:22:33.687Z,90.06
2018-08-12T03:23:33.583Z,90.69
2018-08-12T03:24:33.576Z,90.78
2018-08-12T03:25:33.605Z,90.59
2018-08-12T03:26:33.575Z,91.36
2018-08-12T03:27:33.560Z,90.78
2018-08-12T03:28:33.557Z,91.16
2018-08-12T03:29:33.549Z,90.88
2018-08-12T03:30:33.547Z,89.83
2018-08-12T03:31:33.546Z,90.97
2018-08-12T03:32:33.543Z,90.02
2018-08-12T03:33:33.533Z,90.40
2018-08-12T03:34:33.520Z,90.59
2018-08-12T03:35:33.517Z,90.88
2018-08-12T03:36:33.537Z,90.11
2018-08-12T03:37:33.508Z,90.40
2018-08-12T03:38:33.499Z,90.40
2018-08-12T03:39:33.498Z,90.78
2018-08-12T03:40:33.490Z,90.97
2018-08-12T03:41:33.483Z,90.40
2018-08-12T03:42:33.483Z,91.36
2018-08-12T03:43:33.474Z,91.16
2018-08-12T03:44:33.468Z,90.59
2018-08-12T03:45:33.465Z,91.36
2018-08-12T03:46:33.453Z,90.88
2018-08-12T03:47:33.453Z,91.74
2018-08-12T03:48:34.281Z,91.16
2018-08-12T03:49:33.451Z,91.16
2018-08-12T03:50:35.285Z,91.16
2018-08-12T03:51:33.436Z,91.55
2018-08-12T03:52:33.426Z,91.16
2018-08-12T03:53:33.450Z,92.12
2018-08-12T03:54:33.444Z,91.36
2018-08-12T03:55:33.414Z,91.55
2018-08-12T03:56:33.407Z,91.55
2018-08-12T03:57:33.409Z,91.36
2018-08-12T03:58:33.393Z,91.74
2018-08-12T03:59:35.298Z,91.16
2018-08-12T04:00:33.379Z,91.16
2018-08-12T04:01:33.372Z,91.55
2018-08-12T04:02:33.364Z,91.55
2018-08-12T04:03:33.358Z,91.26
2018-08-12T04:04:33.359Z,91.36
2018-08-12T04:05:33.352Z,91.36
2018-08-12T04:06:33.366Z,91.16
2018-08-12T04:07:33.342Z,91.16
2018-08-12T04:08:33.332Z,90.97
2018-08-12T04:09:33.330Z,91.45
2018-08-12T04:10:33.328Z,91.07
2018-08-12T04:11:33.315Z,91.64
2018-08-12T04:12:33.309Z,91.36
2018-08-12T04:13:33.308Z,92.46
2018-08-12T04:14:33.300Z,92.26
2018-08-12T04:15:33.297Z,91.50
2018-08-12T04:16:33.289Z,92.65
2018-08-12T04:17:33.278Z,92.36
2018-08-12T04:18:33.274Z,92.74
2018-08-12T04:19:33.273Z,92.46
2018-08-12T04:20:33.268Z,91.69
2018-08-12T04:21:33.289Z,92.36
2018-08-12T04:22:33.258Z,92.46
2018-08-12T04:23:33.250Z,92.65
2018-08-12T04:24:33.248Z,91.69
2018-08-12T04:25:33.233Z,92.74
2018-08-12T04:26:33.233Z,92.41
2018-08-12T04:27:33.222Z,92.36
2018-08-12T04:28:33.220Z,91.98
2018-08-12T04:29:33.212Z,91.31
2018-08-12T04:30:33.213Z,91.74
2018-08-12T04:31:33.207Z,91.36
2018-08-12T04:32:33.195Z,92.41
2018-08-12T04:33:33.199Z,91.45
2018-08-12T04:34:33.187Z,91.45
2018-08-12T04:35:33.175Z,91.55
2018-08-12T04:36:33.180Z,91.64
2018-08-12T04:37:33.167Z,92.21
2018-08-12T04:38:33.170Z,92.31
2018-08-12T04:39:33.155Z,92.02
2018-08-12T04:40:33.151Z,91.45
2018-08-12T04:41:33.151Z,91.36
2018-08-12T04:42:33.159Z,92.21
2018-08-12T04:43:33.141Z,92.02
2018-08-12T04:44:33.128Z,91.74
2018-08-12T04:45:33.122Z,91.83
2018-08-12T04:46:33.120Z,91.36
2018-08-12T04:47:33.121Z,91.16
2018-08-12T04:48:33.107Z,91.45
2018-08-12T04:49:33.102Z,92.02
2018-08-12T04:50:33.093Z,91.36
2018-08-12T04:51:33.094Z,90.88
2018-08-12T04:52:33.085Z,91.16
2018-08-12T04:53:33.105Z,91.36
2018-08-12T04:54:33.072Z,90.69
2018-08-12T04:55:33.073Z,91.55
2018-08-12T04:56:33.066Z,91.16
2018-08-12T04:57:33.059Z,91.55
2018-08-12T04:58:33.056Z,90.59
2018-08-12T04:59:33.054Z,91.16
2018-08-12T05:00:33.039Z,91.16
2018-08-12T05:01:33.032Z,90.78
2018-08-12T05:02:33.028Z,91.16
2018-08-12T05:03:33.049Z,91.16
2018-08-12T05:04:33.031Z,91.16
2018-08-12T05:05:33.011Z,90.69
2018-08-12T05:06:33.008Z,91.16
2018-08-12T05:07:33.007Z,90.59
2018-08-12T05:08:32.997Z,90.88
2018-08-12T05:09:32.988Z,91.16
2018-08-12T05:10:32.994Z,90.25
2018-08-12T05:11:33.000Z,90.83
2018-08-12T05:12:32.976Z,90.35
2018-08-12T05:13:32.970Z,90.06
2018-08-12T05:14:32.972Z,90.25
2018-08-12T05:15:32.962Z,89.82
2018-08-12T05:16:32.957Z,89.53
2018-08-12T05:17:32.954Z,88.96
2018-08-12T05:18:32.958Z,88.39
2018-08-12T05:19:32.941Z,88.29
2018-08-12T05:20:32.937Z,87.91
2018-08-12T05:21:32.936Z,87.91
2018-08-12T05:22:32.931Z,87.82
2018-08-12T05:23:32.923Z,87.19
2018-08-12T05:24:32.922Z,87.29
2018-08-12T05:25:32.919Z,86.80
2018-08-12T05:26:32.906Z,86.23
2018-08-12T05:27:32.907Z,86.08
2018-08-12T05:28:32.916Z,85.41
2018-08-12T05:29:32.908Z,85.03
2018-08-12T05:30:32.906Z,84.94
2018-08-12T05:31:32.895Z,84.55
2018-08-12T05:32:32.883Z,84.55
2018-08-12T05:33:32.877Z,84.75
2018-08-12T05:34:32.877Z,84.75
2018-08-12T05:35:32.948Z,84.94
2018-08-12T05:36:32.867Z,84.55
2018-08-12T05:37:32.867Z,84.50
2018-08-12T05:38:32.864Z,84.36
2018-08-12T05:39:32.866Z,83.93
2018-08-12T05:40:32.864Z,83.64
2018-08-12T05:41:32.853Z,83.16
2018-08-12T05:42:32.851Z,83.06
2018-08-12T05:43:32.851Z,82.68
2018-08-12T05:44:32.838Z,82.49
2018-08-12T05:45:32.836Z,82.40
2018-08-12T05:46:32.834Z,82.49
2018-08-12T05:47:32.849Z,82.01
2018-08-12T05:48:32.824Z,81.73
2018-08-12T05:49:32.825Z,81.54
2018-08-12T05:50:32.816Z,81.67
2018-08-12T05:51:32.902Z,81.48
2018-08-12T05:52:32.814Z,80.81
2018-08-12T05:53:32.810Z,80.52
2018-08-12T05:54:32.806Z,80.81
2018-08-12T05:55:32.814Z,79.57
2018-08-12T05:56:32.800Z,79.66
2018-08-12T05:57:32.797Z,79.18
2018-08-12T05:58:32.793Z,79.18
2018-08-12T05:59:32.799Z,78.93
2018-08-12T06:00:32.800Z,78.17
2018-08-12T06:01:32.783Z,78.45
2018-08-12T06:02:32.852Z,78.36
2018-08-12T06:03:32.787Z,77.88
2018-08-12T06:04:32.775Z,77.50
2018-08-12T06:05:32.771Z,77.40
2018-08-12T06:06:32.769Z,77.75
2018-08-12T06:07:32.767Z,77.50
2018-08-12T06:08:32.771Z,76.92
2018-08-12T06:09:32.773Z,77.02
2018-08-12T06:10:32.770Z,77.11
2018-08-12T06:11:32.800Z,77.31
2018-08-12T06:12:32.752Z,76.64
2018-08-12T06:13:32.747Z,76.67
2018-08-12T06:14:32.747Z,77.06
2018-08-12T06:15:32.804Z,76.48
2018-08-12T06:16:32.745Z,75.81
2018-08-12T06:17:32.859Z,75.37
2018-08-12T06:18:32.741Z,74.60
2018-08-12T06:19:32.735Z,74.22
2018-08-12T06:20:32.735Z,74.31
2018-08-12T06:21:32.735Z,73.58
2018-08-12T06:22:32.726Z,73.55
2018-08-12T06:23:32.724Z,73.07
2018-08-12T06:24:32.727Z,72.63
2018-08-12T06:25:32.716Z,72.33
2018-08-12T06:26:32.717Z,71.86
2018-08-12T06:27:32.720Z,72.43
2018-08-12T06:28:32.711Z,72.24
2018-08-12T06:29:32.706Z,72.72
2018-08-12T06:30:32.712Z,72.14
2018-08-12T06:31:32.743Z,71.57
2018-08-12T06:32:32.710Z,71.76
2018-08-12T06:33:32.715Z,70.99
2018-08-12T06:34:32.737Z,70.70
2018-08-12T06:35:32.725Z,70.13
2018-08-12T06:36:32.718Z,69.01
2018-08-12T06:37:32.702Z,68.34
2018-08-12T06:38:32.701Z,67.96
2018-08-12T06:39:32.690Z,68.24
2018-08-12T06:40:32.688Z,67.99
2018-08-12T06:41:32.688Z,67.80
2018-08-12T06:42:32.685Z,66.46
2018-08-12T06:43:32.716Z,66.93
2018-08-12T06:44:32.690Z,66.55
2018-08-12T06:45:32.680Z,67.13
2018-08-12T06:46:32.676Z,66.36
2018-08-12T06:47:32.676Z,66.46
2018-08-12T06:48:32.700Z,66.36
2018-08-12T06:49:32.668Z,66.16
2018-08-12T06:50:32.671Z,65.69
2018-08-12T06:51:32.669Z,66.07
2018-08-12T06:52:32.664Z,65.33
2018-08-12T06:53:32.667Z,65.01
2018-08-12T06:54:32.665Z,64.66
2018-08-12T06:55:32.665Z,64.28
2018-08-12T06:56:32.665Z,64.47
2018-08-12T06:57:32.677Z,64.50
2018-08-12T06:58:32.652Z,63.15
2018-08-12T06:59:32.657Z,62.96
2018-08-12T07:00:32.674Z,62.77
2018-08-12T07:01:32.651Z,62.77
2018-08-12T07:02:32.646Z,62.38
2018-08-12T07:03:32.645Z,62.29
2018-08-12T07:04:32.651Z,61.91
2018-08-12T07:05:32.652Z,62.68
2018-08-12T07:06:32.642Z,62.48
2018-08-12T07:07:32.638Z,62.29
2018-08-12T07:08:32.640Z,62.19
2018-08-12T07:09:32.634Z,62.00
2018-08-12T07:10:32.640Z,61.71
2018-08-12T07:11:32.635Z,61.74
2018-08-12T07:12:32.646Z,61.55
2018-08-12T07:13:32.620Z,62.32
2018-08-12T07:14:32.627Z,60.91
2018-08-12T07:15:32.616Z,60.91
2018-08-12T07:16:32.623Z,60.62
2018-08-12T07:17:32.616Z,60.84
2018-08-12T07:18:32.623Z,59.52
2018-08-12T07:19:37.408Z,57.12
2018-08-12T07:20:32.612Z,56.47
2018-08-12T07:21:32.612Z,56.21
2018-08-12T07:22:32.603Z,55.34
2018-08-12T07:23:32.612Z,55.54
2018-08-12T07:24:32.618Z,54.96
2018-08-12T07:25:32.600Z,55.15
2018-08-12T07:26:32.605Z,54.02
2018-08-12T07:27:32.609Z,51.53
2018-08-12T07:28:32.598Z,50.18
2018-08-12T07:29:32.600Z,50.21
2018-08-12T07:30:32.609Z,49.92
2018-08-12T07:31:32.615Z,50.11
2018-08-12T07:32:32.626Z,49.63
2018-08-12T07:33:32.602Z,49.44
2018-08-12T07:34:32.611Z,49.05
2018-08-12T07:35:32.689Z,48.97
2018-08-12T07:36:32.674Z,48.88
2018-08-12T07:37:32.603Z,47.81
2018-08-12T07:38:32.643Z,48.32
2018-08-12T07:39:32.607Z,47.55
2018-08-12T07:40:33.617Z,47.36
2018-08-12T07:41:32.622Z,47.16
2018-08-12T07:42:34.415Z,47.45
2018-08-12T07:43:32.616Z,47.84
2018-08-12T07:44:32.616Z,47.65
2018-08-12T07:45:32.619Z,46.88
2018-08-12T07:46:32.620Z,46.32
2018-08-12T07:47:32.627Z,45.93
2018-08-12T07:48:32.639Z,45.83
2018-08-12T07:49:32.628Z,44.87
2018-08-12T07:50:32.650Z,43.90
2018-08-12T07:51:32.634Z,44.96
2018-08-12T07:52:32.674Z,45.47
2018-08-12T07:53:32.646Z,45.18
2018-08-12T07:54:32.671Z,44.89
2018-08-12T07:55:32.758Z,45.18
2018-08-12T07:56:32.652Z,43.63
2018-08-12T07:57:32.717Z,44.98
2018-08-12T07:58:32.671Z,44.62
2018-08-12T07:59:32.658Z,43.73
2018-08-12T08:00:32.670Z,44.81
2018-08-12T08:01:32.700Z,43.27
2018-08-12T08:02:32.730Z,43.46
2018-08-12T08:03:32.683Z,43.46
2018-08-12T08:04:33.444Z,42.51
2018-08-12T08:05:32.705Z,41.93
2018-08-12T08:06:32.692Z,41.83
2018-08-12T08:07:32.696Z,42.32
2018-08-12T08:08:32.700Z,41.25
2018-08-12T08:09:37.435Z,41.83
2018-08-12T08:10:32.717Z,41.14
2018-08-12T08:11:32.719Z,41.89
2018-08-12T08:12:32.735Z,42.37
2018-08-12T08:13:32.725Z,42.57
2018-08-12T08:14:32.722Z,43.34
2018-08-12T08:15:32.730Z,42.18
2018-08-12T08:16:32.736Z,43.05
2018-08-12T08:17:32.789Z,42.96
2018-08-12T08:18:32.767Z,42.78
2018-08-12T08:19:32.743Z,42.90
2018-08-12T08:20:32.746Z,42.61
2018-08-12T08:21:32.748Z,42.32
2018-08-12T08:22:32.754Z,41.74
2018-08-12T08:23:32.774Z,42.61
2018-08-12T08:24:32.776Z,41.64
2018-08-12T08:25:32.876Z,42.14
2018-08-12T08:26:32.793Z,42.34
2018-08-12T08:27:32.831Z,42.26
2018-08-12T08:28:32.822Z,40.69
2018-08-12T08:29:32.790Z,40.01
2018-08-12T08:30:32.799Z,40.96
2018-08-12T08:31:32.928Z,40.86
2018-08-12T08:32:32.867Z,41.16
2018-08-12T08:33:32.805Z,41.45
2018-08-12T08:34:32.808Z,41.83
2018-08-12T08:35:32.837Z,41.56
2018-08-12T08:36:32.832Z,41.17
2018-08-12T08:37:32.855Z,40.89
2018-08-12T08:38:32.823Z,40.99
2018-08-12T08:39:32.829Z,41.88
2018-08-12T08:40:32.835Z,41.78
2018-08-12T08:41:32.837Z,40.83
2018-08-12T08:42:32.855Z,40.44
2018-08-12T08:43:32.856Z,38.99
2018-08-12T08:44:32.854Z,39.55
2018-08-12T08:45:32.864Z,40.64
2018-08-12T08:46:32.867Z,39.65
2018-08-12T08:47:32.872Z,39.84
2018-08-12T08:48:32.879Z,39.76
2018-08-12T08:49:32.876Z,40.15
2018-08-12T08:50:32.965Z,39.11
2018-08-12T08:51:32.914Z,38.64
2018-08-12T08:52:33.456Z,39.29
2018-08-12T08:53:32.904Z,39.22
2018-08-12T08:54:32.905Z,39.03
2018-08-12T08:55:32.944Z,38.73
2018-08-12T08:56:32.919Z,39.14
2018-08-12T08:57:32.922Z,37.59
2018-08-12T08:58:32.930Z,36.81
2018-08-12T08:59:32.937Z,38.67
2018-08-12T09:00:32.941Z,38.17
2018-08-12T09:01:32.944Z,38.19
2018-08-12T09:02:32.965Z,36.93
2018-08-12T09:03:32.959Z,36.81
2018-08-12T09:04:32.965Z,36.71
2018-08-12T09:05:32.971Z,37.08
2018-08-12T09:06:32.977Z,38.25
2018-08-12T09:07:32.982Z,38.34
2018-08-12T09:08:33.188Z,37.30
2018-08-12T09:09:32.994Z,37.80
2018-08-12T09:10:33.002Z,37.32
2018-08-12T09:11:33.008Z,37.82
2018-08-12T09:12:33.012Z,37.52
2018-08-12T09:13:33.025Z,36.75
2018-08-12T09:14:33.028Z,36.08
2018-08-12T09:15:33.035Z,35.70
2018-08-12T09:16:33.041Z,35.31
2018-08-12T09:17:33.048Z,35.52
2018-08-12T09:18:33.054Z,35.13
2018-08-12T09:19:33.057Z,34.76
2018-08-12T09:20:33.061Z,34.76
2018-08-12T09:21:33.072Z,35.46
2018-08-12T09:22:33.082Z,35.06
2018-08-12T09:23:33.087Z,34.17
2018-08-12T09:24:33.093Z,35.46
2018-08-12T09:25:33.100Z,34.39
2018-08-12T09:26:33.104Z,34.19
2018-08-12T09:27:33.114Z,33.41
2018-08-12T09:28:33.123Z,34.58
2018-08-12T09:29:33.130Z,33.11
2018-08-12T09:30:33.134Z,35.13
2018-08-12T09:31:33.135Z,35.50
2018-08-12T09:32:33.149Z,35.61
2018-08-12T09:33:33.161Z,35.61
2018-08-12T09:34:33.162Z,35.71
2018-08-12T09:35:33.172Z,35.15
2018-08-12T09:36:33.174Z,34.06
2018-08-12T09:37:33.217Z,35.03
2018-08-12T09:38:33.192Z,35.91
2018-08-12T09:39:33.204Z,35.15
2018-08-12T09:40:33.209Z,35.05
2018-08-12T09:41:33.216Z,34.88
2018-08-12T09:42:33.241Z,35.75
2018-08-12T09:43:33.232Z,35.16
2018-08-12T09:44:33.242Z,34.29
2018-08-12T09:45:33.249Z,34.68
2018-08-12T09:46:33.251Z,34.56
2018-08-12T09:47:33.263Z,35.05
2018-08-12T09:48:33.268Z,35.13
2018-08-12T09:49:33.272Z,36.96
2018-08-12T09:50:33.289Z,36.49
2018-08-12T09:51:33.348Z,34.95
2018-08-12T09:52:33.299Z,34.74
2018-08-12T09:53:33.311Z,35.15
2018-08-12T09:54:33.318Z,34.97
2018-08-12T09:55:33.323Z,34.79
2018-08-12T09:56:33.339Z,34.69
2018-08-12T09:57:33.344Z,35.08
2018-08-12T09:58:33.415Z,35.15
2018-08-12T09:59:33.355Z,35.73
2018-08-12T10:00:33.359Z,35.25
2018-08-12T10:01:33.467Z,35.52
2018-08-12T10:02:33.375Z,35.71
2018-08-12T10:03:33.387Z,35.33
2018-08-12T10:04:33.396Z,36.80
2018-08-12T10:05:33.423Z,36.90
2018-08-12T10:06:33.410Z,35.93
2018-08-12T10:07:33.443Z,35.26
2018-08-12T10:08:33.416Z,34.95
2018-08-12T10:09:33.436Z,35.34
2018-08-12T10:10:33.441Z,35.63
2018-08-12T10:11:33.478Z,36.51
2018-08-12T10:12:33.454Z,37.58
2018-08-12T10:13:33.463Z,35.83
2018-08-12T10:14:33.467Z,35.61
2018-08-12T10:15:33.478Z,36.98
2018-08-12T10:16:33.477Z,36.20
2018-08-12T10:17:33.485Z,36.88
2018-08-12T10:18:33.505Z,37.39
2018-08-12T10:19:33.514Z,37.12
2018-08-12T10:20:33.507Z,36.24
2018-08-12T10:21:33.542Z,37.02
2018-08-12T10:30:16.426Z,34.86
2018-08-12T10:31:16.257Z,33.40
2018-08-12T10:33:09.915Z,32.91
2018-08-12T10:34:09.917Z,33.67
2018-08-12T10:35:09.947Z,33.17
2018-08-12T10:36:09.930Z,34.32
2018-08-12T10:37:09.947Z,34.91
2018-08-12T10:38:09.963Z,34.89
2018-08-12T10:39:09.961Z,37.52
2018-08-12T10:40:09.979Z,37.60
2018-08-12T10:41:09.977Z,37.79
2018-08-12T10:42:09.997Z,37.50
2018-08-12T10:43:10.003Z,37.02
2018-08-12T10:44:10.004Z,37.13
2018-08-12T10:45:10.012Z,35.18
2018-08-12T10:46:10.020Z,34.61
2018-08-12T10:47:10.029Z,34.24
2018-08-12T10:48:10.035Z,34.22
2018-08-12T10:49:10.046Z,35.00
2018-08-12T10:50:10.065Z,34.81
2018-08-12T10:51:10.061Z,35.49
2018-08-12T10:52:10.073Z,35.77
2018-08-12T10:53:10.073Z,36.55
2018-08-12T10:54:10.083Z,37.04
2018-08-12T10:55:10.096Z,35.80
2018-08-12T10:56:10.105Z,35.12
2018-08-12T10:57:10.111Z,35.14
2018-08-12T10:58:10.117Z,36.88
2018-08-12T10:59:10.124Z,36.21
2018-08-12T11:00:10.172Z,35.33
2018-08-12T11:01:10.160Z,34.36
2018-08-12T11:02:10.177Z,34.75
2018-08-12T11:03:10.175Z,35.14
2018-08-12T11:04:10.172Z,35.33
2018-08-12T11:05:10.178Z,35.04
2018-08-12T11:06:10.249Z,35.80
2018-08-12T11:07:10.232Z,35.02
2018-08-12T11:08:10.262Z,36.27
2018-08-12T11:09:10.229Z,35.98
2018-08-12T11:10:10.227Z,35.31
2018-08-12T11:11:10.240Z,35.82
2018-08-12T11:12:10.247Z,34.84
2018-08-12T11:13:10.257Z,34.36
2018-08-12T11:14:10.267Z,34.63
2018-08-12T11:15:10.271Z,34.92
2018-08-12T11:16:10.279Z,35.22
2018-08-12T11:17:10.318Z,35.78
2018-08-12T11:18:10.299Z,35.30
2018-08-12T11:19:10.308Z,35.98
2018-08-12T11:20:10.325Z,35.77
2018-08-12T11:21:10.349Z,34.61
2018-08-12T11:22:10.345Z,35.51
2018-08-12T11:23:10.348Z,34.34
2018-08-12T11:24:10.386Z,34.65
2018-08-12T11:25:10.360Z,33.67
2018-08-12T11:26:10.371Z,33.77
2018-08-12T11:27:10.459Z,33.20
2018-08-12T11:28:10.384Z,34.38
2018-08-12T11:29:10.396Z,34.38
2018-08-12T11:30:10.406Z,33.79
2018-08-12T11:31:10.412Z,33.30
2018-08-12T11:32:10.427Z,32.81
2018-08-12T11:33:10.432Z,33.40
2018-08-12T11:34:10.463Z,32.50
2018-08-12T11:35:10.460Z,33.48
2018-08-12T11:36:10.464Z,34.44
2018-08-12T11:37:10.464Z,34.24
2018-08-12T11:38:10.472Z,33.58
2018-08-12T11:39:10.480Z,34.36
2018-08-12T11:40:10.495Z,34.84
2018-08-12T11:41:10.544Z,34.26
2018-08-12T11:42:10.503Z,34.55
2018-08-12T11:43:10.511Z,34.65
2018-08-12T11:44:10.522Z,34.94
2018-08-12T11:45:10.543Z,34.47
2018-08-12T11:46:10.536Z,34.67
2018-08-12T11:47:10.585Z,33.79
2018-08-12T11:48:10.559Z,33.11
2018-08-12T11:49:10.615Z,33.02
2018-08-12T11:50:10.567Z,33.22
2018-08-12T11:51:10.578Z,32.91
2018-08-12T11:52:10.585Z,32.62
2018-08-12T11:53:10.586Z,32.42
2018-08-12T11:54:10.596Z,33.11
2018-08-12T11:55:10.604Z,33.20
2018-08-12T11:56:10.612Z,33.40
2018-08-12T11:57:10.620Z,34.08
2018-08-12T11:58:10.634Z,33.59
2018-08-12T11:59:10.636Z,33.30
2018-08-12T12:00:10.651Z,33.30
2018-08-12T12:01:10.652Z,32.81
2018-08-12T12:02:10.703Z,33.20
2018-08-12T12:03:10.668Z,33.01
2018-08-12T12:04:10.677Z,33.02
2018-08-12T12:05:10.685Z,33.11
2018-08-12T12:06:10.694Z,32.99
2018-08-12T12:07:10.706Z,32.50
2018-08-12T12:08:10.712Z,33.65
2018-08-12T12:09:10.718Z,34.44
2018-08-12T12:10:10.725Z,34.05
2018-08-12T12:11:10.729Z,34.63
2018-08-12T12:12:10.742Z,33.95
2018-08-12T12:13:10.790Z,32.86
2018-08-12T12:14:10.754Z,36.08
2018-08-12T12:15:10.764Z,35.61
2018-08-12T12:16:10.770Z,35.12
2018-08-12T12:17:10.779Z,33.95
2018-08-12T12:18:10.836Z,34.53
2018-08-12T12:19:10.803Z,34.94
2018-08-12T12:20:10.797Z,33.59
2018-08-12T12:21:10.803Z,33.09
2018-08-12T12:22:10.810Z,32.89
2018-08-12T12:23:10.816Z,33.38
2018-08-12T12:24:10.833Z,32.99
2018-08-12T12:25:10.838Z,33.18
2018-08-12T12:26:10.839Z,32.32
2018-08-12T12:27:10.852Z,32.71
2018-08-12T12:28:10.863Z,32.42
2018-08-12T12:29:10.869Z,32.52
2018-08-12T12:30:10.876Z,32.79
2018-08-12T12:31:10.879Z,33.11
2018-08-12T12:32:10.895Z,32.52
2018-08-12T12:33:10.892Z,32.92
2018-08-12T12:34:10.903Z,31.45
2018-08-12T12:35:10.909Z,32.91
2018-08-12T12:36:10.912Z,32.24
2018-08-12T12:37:10.924Z,32.23
2018-08-12T12:38:10.931Z,32.32
2018-08-12T12:39:10.939Z,31.84
2018-08-12T12:40:10.946Z,33.18
2018-08-12T12:41:10.957Z,32.89
2018-08-12T12:42:10.957Z,33.28
2018-08-12T12:43:10.965Z,33.36
2018-08-12T12:44:10.972Z,34.05
2018-08-12T12:45:10.981Z,34.14
2018-08-12T12:46:10.990Z,34.44
2018-08-12T12:47:10.992Z,34.24
2018-08-12T12:48:11.006Z,33.18
2018-08-12T12:49:11.008Z,35.04
2018-08-12T12:50:11.077Z,33.38
2018-08-12T12:51:11.024Z,33.67
2018-08-12T12:52:11.031Z,32.99
2018-08-12T12:53:11.037Z,33.18
2018-08-12T12:54:11.046Z,32.99
2018-08-12T12:55:11.057Z,33.38
2018-08-12T12:56:11.075Z,34.16
2018-08-12T12:57:11.091Z,32.60
2018-08-12T12:58:11.155Z,33.09
2018-08-12T12:59:11.084Z,33.77
2018-08-12T13:00:11.108Z,33.87
2018-08-12T13:01:11.111Z,33.79